Saturday, November 17, 2018, 6:41 AM GMT
Back to Local

CYTR, Trenton, Ont.

Location: , , Canada Lat: 44.117
Local Time: 6:41 AM GMT ( 6:41 GMT) Lon: -77.533
Time Zone: GMT Elev: 278 ft

Show me the last for .
Show Decoded

2018-11-17 06:00 METAR CYTR 170600Z 26011KT 4SM BR BKN018 OVC040 03/01 A2987 RMK SC5SC3 SLP121 =
2018-11-17 05:00 METAR CYTR 170500Z 25012KT 7SM BKN015 OVC057 03/01 A2985 RMK SC5SC3 SLP114 =
2018-11-17 04:00 METAR CYTR 170400Z 26015G20KT 10SM BKN015 OVC057 03/01 A2982 RMK SC5SC3 SLP103 =
2018-11-17 03:00 METAR CYTR 170300Z 25014KT 10SM BKN015 BKN050 02/00 A2981 RMK SC5SC2 SLP101 =
2018-11-17 02:00 METAR CYTR 170200Z 25013G20KT 8SM BKN014 OVC087 02/00 A2979 RMK SC6AC2 SLP093 =
2018-11-17 01:00 METAR CYTR 170100Z 25016KT 8SM BKN014 OVC087 02/00 A2977 RMK SC6AC2 SLP086 =
2018-11-17 00:00 METAR CYTR 170000Z CCA 25015KT 8SM BKN014 OVC100 02/00 A2975 RMK SC6AC2 SLP079 =
2018-11-16 23:00 METAR CYTR 162300Z 25014KT 15SM SCT015 OVC120 02/00 A2972 RMK SC3AS5 MOON DIMLY
                 VISBL SLP070 =
2018-11-16 22:23 METAR CYTR 162223Z 25011G17KT 10SM -DZ SCT015 OVC120 02/01 A2971 RMK SC3AS5 MOON
                 DIMLY VISBL SLP066 =
2018-11-16 22:00 METAR CYTR 162200Z 25013KT 10SM -RA SCT015 OVC120 02/00 A2971 RMK SC3AS5 MOON
                 DIMLY VISBL SLP064 =
2018-11-16 21:20 METAR CYTR 162120Z 25014KT 8SM -DZ SCT012 BKN060 OVC120 02/01 A2969 RMK
                 SF3SC2AC2 PCPN VRY LGT SLP060 =
2018-11-16 21:00 METAR CYTR 162100Z 25013KT 7SM -DZ BKN012 OVC060 02/01 A2969 RMK SF5SC3 PCPN VRY
                 LGT SLP057 =
2018-11-16 20:20 METAR CYTR 162020Z 25011KT 7SM -DZ BKN012 OVC060 02/01 A2967 RMK SF6SC2 PCPN VRY
                 LGT SLP052 =
2018-11-16 20:00 METAR CYTR 162000Z 25009KT 7SM BKN012 OVC060 02/01 A2967 RMK SF6SC2 SLP050 =
2018-11-16 19:47 METAR CYTR 161947Z 25008KT 7SM BKN012 OVC060 02/01 A2966 RMK SF6SC2 SLP049 =
2018-11-16 19:29 METAR CYTR 161929Z 23003KT 7SM -DZ BKN012 BKN045 OVC080 01/00 A2966 RMK
                 SF5SC2AC1 PCPN VRY LGT SLP049 =
2018-11-16 19:18 METAR CYTR 161918Z 22004KT 3SM -SN BKN012 OVC045 00/M00 A2966 RMK SF6SC2 VIS VRB
                 2 1/4-4 SLP049 =
2018-11-16 19:00 METAR CYTR 161900Z 21002KT 2SM -SN OVC012 M00/M01 A2966 RMK SN2SF6 VIS VRB 1
                 1/4-3 SLP050 =
2018-11-16 18:50 METAR CYTR 161850Z 23002KT 2SM -SN OVC012 M00/M01 A2966 RMK SN2SF6 VIS VRB 1
                 1/4-3 SLP050 =
2018-11-16 18:20 METAR CYTR 161820Z 00000KT 3SM -SN BKN009 OVC045 M00/M01 A2966 RMK SF6SC2 VIS
                 VRB 2 1/4-4 SLP049 =
2018-11-16 18:00 METAR CYTR 161800Z 00000KT 2SM -SN OVC007 M00/M01 A2966 RMK SN3SF5 VIS VRB 1
                 1/2-2 1/2 SLP049 =
2018-11-16 17:00 METAR CYTR 161700Z 04002KT 1 1/4SM -SN OVC004 M01/M02 A2966 RMK SN6SF2 VIS VRB
                 3/4-1 3/4 /S03/ SLP050 =
2018-11-16 16:27 METAR CYTR 161627Z 07002KT 3/4SM -SN OVC004 M01/M02 A2968 RMK SN6SF2 VIS VRB
                 1/2-1 SLP055 =
2018-11-16 16:19 METAR CYTR 161619Z 06003KT 1 1/4SM -SN OVC004 M01/M02 A2968 RMK SN6SF2 SLP056 =
2018-11-16 16:00 METAR CYTR 161600Z 09003KT 2SM -SN OVC008 M01/M02 A2969 RMK SN2SF6 SLP058 =
2018-11-16 15:00 METAR CYTR 161500Z 07005KT 2SM -SN BKN005 OVC013 M01/M02 A2970 RMK SN2SF4SC2
                 SLP064 =
2018-11-16 14:16 METAR CYTR 161416Z 08005KT 1 3/4SM -SN OVC005 M01/M02 A2972 RMK SN5SF3 SLP068 =
2018-11-16 14:00 METAR CYTR 161400Z CCA 06003KT 3SM -SN BKN005 OVC013 M01/M02 A2972 RMK SN2SF5SC1
                 SLP070 =
2018-11-16 13:00 METAR CYTR 161300Z 06004KT 1 1/2SM -SN BKN007 OVC018 M02/M02 A2973 RMK SN5SF2SC1
                 SLP074 =
2018-11-16 12:00 METAR CYTR 161200Z 05005KT 2SM -SN OVC007 M02/M03 A2974 RMK SN3SF5 /S05/ SLP077
                 =
2018-11-16 11:00 METAR CYTR 161100Z 04005KT 1 1/2SM -SN OVC005 M02/M02 A2976 RMK SN4SF4 VIS VRB
                 1-2 CIG VRB 3-7 /S04/ SLP083 =
2018-11-16 10:00 METAR CYTR 161000Z 07005KT 1 1/2SM -SN OVC007 M02/M02 A2978 RMK SN4SF4 VIS VRB
                 1-2 CIG VRB 5-9 /S03/ SLP091 =
2018-11-16 09:00 METAR CYTR 160900Z 08005KT 1 1/4SM -SN OVC007 M02/M02 A2981 RMK SN5SF3 VIS VRB
                 3/4-1 3/4 CIG VRB 5-9 SLP099 =
2018-11-16 08:36 METAR CYTR 160836Z 05005KT 1 1/2SM -SN OVC005 M02/M03 A2983 RMK SN4SF4 VIS VRB
                 1-2 CIG VRB 3-7 /S02/ SLP105 =
2018-11-16 08:00 METAR CYTR 160800Z 06003KT 2SM -SN OVC009 M02/M03 A2985 RMK SN3SF5 VIS VRB 1
                 1/2-2 1/2 CIG VRB 6-12 /S01/ SLP112 =
2018-11-16 07:00 METAR CYTR 160700Z 07005KT 2 1/2SM -SN BKN009 OVC045 M02/M03 A2988 RMK SN2SF5SC2
                 VIS VRB 1 3/4-4 CIG VRB 6-12 SLP122 =

Support USWX by starting your Amazon purchase here.